createdAt,value
2019-04-26T00:01:15.803Z,16.19
2019-04-26T00:03:48.957Z,16.19
2019-04-26T00:06:20.332Z,16.10
2019-04-26T00:08:53.176Z,16.06
2019-04-26T00:11:34.978Z,16.03
2019-04-26T00:14:07.825Z,15.98
2019-04-26T00:16:43.415Z,15.98
2019-04-26T00:19:14.524Z,15.98
2019-04-26T00:21:46.805Z,15.98
2019-04-26T00:24:19.404Z,15.95
2019-04-26T00:26:50.422Z,15.94
2019-04-26T00:29:21.285Z,15.93
2019-04-26T00:31:52.350Z,15.89
2019-04-26T00:34:23.209Z,15.90
2019-04-26T00:36:54.184Z,15.85
2019-04-26T00:39:25.147Z,15.80
2019-04-26T00:41:57.134Z,15.76
2019-04-26T00:44:28.193Z,15.74
2019-04-26T00:47:01.930Z,15.74
2019-04-26T00:49:43.484Z,15.69
2019-04-26T00:52:08.653Z,15.64
2019-04-26T00:54:39.823Z,15.60
2019-04-26T00:57:11.939Z,15.58
2019-04-26T00:59:43.492Z,15.57
2019-04-26T01:02:16.680Z,15.52
2019-04-26T01:04:47.612Z,15.50
2019-04-26T01:07:19.083Z,15.41
2019-04-26T01:09:50.209Z,15.39
2019-04-26T01:12:21.928Z,15.37
2019-04-26T01:14:53.048Z,15.34
2019-04-26T01:17:24.581Z,15.31
2019-04-26T01:19:56.670Z,15.30
2019-04-26T01:22:31.378Z,15.29
2019-04-26T01:25:04.117Z,15.28
2019-04-26T01:27:36.157Z,15.25
2019-04-26T01:30:09.239Z,15.25
2019-04-26T01:32:41.716Z,15.24
2019-04-26T01:35:12.707Z,15.19
2019-04-26T01:37:45.637Z,15.09
2019-04-26T01:40:18.510Z,15.03
2019-04-26T01:42:54.781Z,14.96
2019-04-26T01:45:28.271Z,14.92
2019-04-26T01:48:39.265Z,14.91
2019-04-26T01:51:14.024Z,14.87
2019-04-26T01:53:48.585Z,14.78
2019-04-26T01:56:23.580Z,14.78
2019-04-26T01:58:54.709Z,14.75
2019-04-26T02:01:46.370Z,14.75
2019-04-26T02:04:17.932Z,14.75
2019-04-26T02:06:49.005Z,14.65
2019-04-26T02:09:22.875Z,14.64
2019-04-26T02:11:54.024Z,14.62
2019-04-26T02:14:25.294Z,14.61
2019-04-26T02:16:56.742Z,14.62
2019-04-26T02:19:29.471Z,14.62
2019-04-26T02:22:02.802Z,14.60
2019-04-26T02:24:36.000Z,14.58
2019-04-26T02:27:08.951Z,14.56
2019-04-26T02:29:39.927Z,14.54
2019-04-26T02:32:11.230Z,14.43
2019-04-26T02:34:42.489Z,14.40
2019-04-26T02:37:14.542Z,14.37
2019-04-26T02:39:45.492Z,14.32
2019-04-26T02:42:23.123Z,14.27
2019-04-26T02:45:14.707Z,14.25
2019-04-26T02:47:54.316Z,14.22
2019-04-26T02:50:38.382Z,14.11
2019-04-26T02:53:29.520Z,14.06
2019-04-26T02:56:25.422Z,14.02
2019-04-26T02:59:00.066Z,13.96
2019-04-26T03:01:32.418Z,13.88
2019-04-26T03:04:04.180Z,13.87
2019-04-26T03:06:40.602Z,13.85
2019-04-26T03:09:14.404Z,13.75
2019-04-26T03:12:04.064Z,13.73
2019-04-26T03:14:52.027Z,13.70
2019-04-26T03:17:32.515Z,13.61
2019-04-26T03:20:15.201Z,13.45
2019-04-26T03:22:55.874Z,13.36
2019-04-26T03:25:45.543Z,13.36
2019-04-26T03:28:39.994Z,13.29
2019-04-26T03:31:20.955Z,13.25
2019-04-26T03:33:55.802Z,13.19
2019-04-26T03:36:37.419Z,13.18
2019-04-26T03:39:16.584Z,13.20
2019-04-26T03:42:05.066Z,13.21
2019-04-26T03:44:51.730Z,13.16
2019-04-26T03:47:26.393Z,13.09
2019-04-26T03:50:12.510Z,13.02
2019-04-26T03:53:03.976Z,12.97
2019-04-26T03:55:43.258Z,12.94
2019-04-26T03:58:19.009Z,12.87
2019-04-26T04:00:53.329Z,12.87
2019-04-26T04:03:49.401Z,12.91
2019-04-26T04:06:25.956Z,12.92
2019-04-26T04:09:04.352Z,12.89
2019-04-26T04:11:49.425Z,12.80
2019-04-26T04:14:42.867Z,12.73
2019-04-26T04:17:28.510Z,12.65
2019-04-26T04:20:19.495Z,12.57
2019-04-26T04:23:17.049Z,12.56
2019-04-26T04:25:50.329Z,12.48
2019-04-26T04:28:33.633Z,12.41
2019-04-26T04:31:32.243Z,12.44
2019-04-26T04:34:16.187Z,12.46
2019-04-26T04:36:51.516Z,12.34
2019-04-26T04:39:26.640Z,12.33
2019-04-26T04:42:09.178Z,12.44
2019-04-26T04:45:21.734Z,12.57
2019-04-26T04:48:18.694Z,12.64
2019-04-26T04:51:16.293Z,12.66
2019-04-26T04:54:07.698Z,12.68
2019-04-26T04:57:17.542Z,12.74
2019-04-26T04:59:58.442Z,12.83
2019-04-26T05:02:59.033Z,12.90
2019-04-26T05:05:43.497Z,13.01
2019-04-26T05:08:18.318Z,13.10
2019-04-26T05:11:10.588Z,13.22
2019-04-26T05:13:46.377Z,13.33
2019-04-26T05:16:45.000Z,13.41
2019-04-26T05:19:35.270Z,13.42
2019-04-26T05:22:28.168Z,13.49
2019-04-26T05:25:49.375Z,13.46
2019-04-26T05:28:49.573Z,13.56
2019-04-26T05:31:34.199Z,13.50
2019-04-26T05:34:35.216Z,13.66
2019-04-26T05:37:27.842Z,13.83
2019-04-26T05:40:05.388Z,14.01
2019-04-26T05:43:07.627Z,14.26
2019-04-26T05:46:02.407Z,14.46
2019-04-26T05:48:58.372Z,14.55
2019-04-26T05:52:16.152Z,14.61
2019-04-26T05:55:10.474Z,14.79
2019-04-26T05:57:51.110Z,15.04
2019-04-26T06:00:45.944Z,15.34
2019-04-26T06:03:49.644Z,15.36
2019-04-26T06:06:33.364Z,15.66
2019-04-26T06:09:25.673Z,15.75
2019-04-26T06:12:35.004Z,16.06
2019-04-26T06:15:33.969Z,16.30
2019-04-26T06:18:16.533Z,16.57
2019-04-26T06:20:52.599Z,16.69
2019-04-26T06:23:39.645Z,17.00
2019-04-26T06:26:54.330Z,17.37
2019-04-26T06:29:43.833Z,18.00
2019-04-26T06:32:33.644Z,20.85
2019-04-26T06:35:20.637Z,24.77
2019-04-26T06:38:19.876Z,26.40
2019-04-26T06:41:18.105Z,27.08
2019-04-26T06:44:03.446Z,30.40
2019-04-26T06:46:51.811Z,32.79
2019-04-26T06:49:40.446Z,34.22
2019-04-26T06:52:15.084Z,35.77
2019-04-26T06:54:52.272Z,36.44
2019-04-26T06:57:45.341Z,36.81
2019-04-26T07:00:20.527Z,36.58
2019-04-26T07:03:28.386Z,36.51
2019-04-26T07:06:03.067Z,36.50
2019-04-26T07:08:39.799Z,37.73
2019-04-26T07:11:38.691Z,37.29
2019-04-26T07:14:37.266Z,37.47
2019-04-26T07:17:14.794Z,38.79
2019-04-26T07:20:07.698Z,38.45
2019-04-26T07:23:17.233Z,40.21
2019-04-26T07:26:15.563Z,40.66
2019-04-26T07:29:26.922Z,41.18
2019-04-26T07:32:16.858Z,41.89
2019-04-26T07:35:08.749Z,42.61
2019-04-26T07:38:14.978Z,42.52
2019-04-26T07:41:13.197Z,42.06
2019-04-26T07:43:58.801Z,41.26
2019-04-26T07:47:08.545Z,40.69
2019-04-26T07:50:05.075Z,39.94
2019-04-26T07:53:03.307Z,39.31
2019-04-26T07:55:39.452Z,39.21
2019-04-26T07:58:33.583Z,38.60
2019-04-26T08:01:16.347Z,38.12
2019-04-26T08:03:55.664Z,39.64
2019-04-26T08:06:33.288Z,40.00
2019-04-26T08:09:24.207Z,38.88
2019-04-26T08:11:50.385Z,35.42
2019-04-26T08:14:28.040Z,34.33
2019-04-26T08:17:24.992Z,33.92
2019-04-26T08:20:24.220Z,33.86
2019-04-26T08:23:02.726Z,33.41
2019-04-26T08:25:36.989Z,34.64
2019-04-26T08:28:12.062Z,35.66
2019-04-26T08:30:46.275Z,34.54
2019-04-26T08:33:29.036Z,33.99
2019-04-26T08:36:03.510Z,36.11
2019-04-26T08:38:35.389Z,38.22
2019-04-26T08:41:08.576Z,38.43
2019-04-26T08:43:49.908Z,38.99
2019-04-26T08:46:40.672Z,37.08
2019-04-26T08:49:35.089Z,35.27
2019-04-26T08:52:14.271Z,33.97
2019-04-26T08:54:43.948Z,31.83
2019-04-26T08:57:15.504Z,32.91
2019-04-26T08:59:50.185Z,35.22
2019-04-26T09:02:32.463Z,37.22
2019-04-26T09:05:11.012Z,35.64
2019-04-26T09:07:47.736Z,32.51
2019-04-26T09:10:21.707Z,30.65
2019-04-26T09:12:56.355Z,29.79
2019-04-26T09:15:51.565Z,28.13
2019-04-26T09:18:22.591Z,27.18
2019-04-26T09:20:53.577Z,26.64
2019-04-26T09:23:44.453Z,26.48
2019-04-26T09:26:32.493Z,25.58
2019-04-26T09:29:26.392Z,24.49
2019-04-26T09:32:07.230Z,23.73
2019-04-26T09:34:41.277Z,23.41
2019-04-26T09:37:12.766Z,23.15
2019-04-26T09:39:43.746Z,22.65
2019-04-26T09:42:33.097Z,22.51
2019-04-26T09:45:18.174Z,22.27
2019-04-26T09:47:51.051Z,21.94
2019-04-26T09:50:26.793Z,21.36
2019-04-26T09:52:58.856Z,21.12
2019-04-26T09:55:35.714Z,20.94
2019-04-26T09:58:03.074Z,21.22
2019-04-26T10:00:34.174Z,21.06
2019-04-26T10:03:05.711Z,20.95
2019-04-26T10:05:38.290Z,20.78
2019-04-26T10:08:13.155Z,20.77
2019-04-26T10:10:42.326Z,20.86
2019-04-26T10:13:20.826Z,20.56
2019-04-26T10:16:02.666Z,20.45
2019-04-26T10:18:32.088Z,20.44
2019-04-26T10:21:03.345Z,20.62
2019-04-26T10:23:34.390Z,20.75
2019-04-26T10:26:06.788Z,20.72
2019-04-26T10:28:37.844Z,20.58
2019-04-26T10:31:08.930Z,20.12
2019-04-26T10:33:39.909Z,19.71
2019-04-26T10:36:11.023Z,19.44
2019-04-26T10:38:42.074Z,19.23
2019-04-26T10:41:13.293Z,18.73
2019-04-26T10:43:44.375Z,18.37
2019-04-26T10:46:15.611Z,18.28
2019-04-26T10:48:49.865Z,18.38
2019-04-26T10:51:24.039Z,18.29
2019-04-26T10:54:01.601Z,18.14
2019-04-26T10:56:36.234Z,18.08
2019-04-26T10:59:15.101Z,18.11
2019-04-26T11:01:46.151Z,18.23
2019-04-26T11:04:17.018Z,18.62
2019-04-26T11:06:48.071Z,18.39
2019-04-26T11:09:19.157Z,18.46
2019-04-26T11:11:50.888Z,18.42
2019-04-26T11:14:22.674Z,18.30
2019-04-26T11:16:54.918Z,18.16
2019-04-26T11:19:25.962Z,18.06
2019-04-26T11:21:57.175Z,17.92
2019-04-26T11:24:28.308Z,17.92
2019-04-26T11:26:59.346Z,18.03
2019-04-26T11:29:30.436Z,18.34
2019-04-26T11:32:02.681Z,18.59
2019-04-26T11:34:34.236Z,18.76
2019-04-26T11:37:05.412Z,18.69
2019-04-26T11:39:39.969Z,18.66
2019-04-26T11:42:11.738Z,18.92
2019-04-26T11:44:44.517Z,18.77
2019-04-26T11:47:15.230Z,18.80
2019-04-26T11:49:46.269Z,18.96
2019-04-26T11:52:17.225Z,18.90
2019-04-26T11:54:51.341Z,18.60
2019-04-26T11:57:20.946Z,18.46
2019-04-26T11:59:52.009Z,18.32
2019-04-26T12:02:23.156Z,18.07
2019-04-26T12:04:56.026Z,18.01
2019-04-26T12:07:31.567Z,18.23
2019-04-26T12:10:09.850Z,18.21
2019-04-26T12:12:39.470Z,18.35
2019-04-26T12:15:11.675Z,18.25
2019-04-26T12:17:42.682Z,17.93
2019-04-26T12:20:13.819Z,17.76
2019-04-26T12:22:44.739Z,17.56
2019-04-26T12:25:15.741Z,17.23
2019-04-26T12:27:46.869Z,16.91
2019-04-26T12:30:18.367Z,17.15
2019-04-26T12:32:50.191Z,17.45
2019-04-26T12:35:21.229Z,17.66
2019-04-26T12:37:54.680Z,17.72
2019-04-26T12:40:25.196Z,17.47
2019-04-26T12:42:56.266Z,17.30
2019-04-26T12:45:51.067Z,17.03
2019-04-26T12:48:22.137Z,16.91
2019-04-26T12:50:53.182Z,16.66
2019-04-26T12:53:26.739Z,16.45
2019-04-26T12:55:58.403Z,16.21
2019-04-26T12:58:29.497Z,16.03
2019-04-26T13:01:00.551Z,15.79
2019-04-26T13:03:31.449Z,15.67
2019-04-26T13:06:02.674Z,15.53
2019-04-26T13:08:33.627Z,15.47
2019-04-26T13:11:14.877Z,15.34
2019-04-26T13:13:51.066Z,15.22
2019-04-26T13:16:29.461Z,15.21
2019-04-26T13:19:00.323Z,15.05
2019-04-26T13:21:33.111Z,15.17
2019-04-26T13:24:06.046Z,15.08
2019-04-26T13:26:37.693Z,14.98
2019-04-26T13:29:08.566Z,14.94
2019-04-26T13:31:39.619Z,14.81
2019-04-26T13:34:10.764Z,14.86
2019-04-26T13:36:41.769Z,14.80
2019-04-26T13:39:17.489Z,14.83
2019-04-26T13:41:46.281Z,14.83
2019-04-26T13:44:19.300Z,14.74
2019-04-26T13:46:57.926Z,14.84
2019-04-26T13:49:42.793Z,14.78
2019-04-26T13:52:13.756Z,14.66
2019-04-26T13:54:44.781Z,14.55
2019-04-26T13:57:15.809Z,14.58
2019-04-26T13:59:46.743Z,14.57
2019-04-26T14:02:17.899Z,14.60
2019-04-26T14:04:48.750Z,14.38
2019-04-26T14:07:24.106Z,14.35
2019-04-26T14:09:52.610Z,14.34
2019-04-26T14:12:23.588Z,14.44
2019-04-26T14:14:54.665Z,14.62
2019-04-26T14:17:26.007Z,14.80
2019-04-26T14:19:58.521Z,14.95
2019-04-26T14:22:31.548Z,15.02
2019-04-26T14:25:06.005Z,15.08
2019-04-26T14:27:38.983Z,15.06
2019-04-26T14:30:10.256Z,14.82
2019-04-26T14:32:42.663Z,14.74
2019-04-26T14:35:15.607Z,14.83
2019-04-26T14:37:49.893Z,14.87
2019-04-26T14:40:19.561Z,15.08
2019-04-26T14:42:50.611Z,15.41
2019-04-26T14:45:23.665Z,15.62
2019-04-26T14:47:54.697Z,15.95
2019-04-26T14:50:28.164Z,15.79
2019-04-26T14:53:02.297Z,15.61
2019-04-26T14:55:31.589Z,15.46
2019-04-26T14:58:02.651Z,15.34
2019-04-26T15:00:38.221Z,15.27
2019-04-26T15:03:20.505Z,15.40
2019-04-26T15:05:51.735Z,15.77
2019-04-26T15:08:22.889Z,15.93
2019-04-26T15:11:00.929Z,16.03
2019-04-26T15:13:27.022Z,16.15
2019-04-26T15:15:58.117Z,16.01
2019-04-26T15:18:33.047Z,15.62
2019-04-26T15:21:03.927Z,15.33
2019-04-26T15:23:35.247Z,15.26
2019-04-26T15:26:06.093Z,15.09
2019-04-26T15:28:37.191Z,15.02
2019-04-26T15:31:08.134Z,14.91
2019-04-26T15:33:42.737Z,14.98
2019-04-26T15:36:14.436Z,15.17
2019-04-26T15:38:46.632Z,15.27
2019-04-26T15:41:33.232Z,15.24
2019-04-26T15:44:24.857Z,15.26
2019-04-26T15:47:03.260Z,15.22
2019-04-26T15:49:38.195Z,15.19
2019-04-26T15:52:09.141Z,15.16
2019-04-26T15:54:40.194Z,15.09
2019-04-26T15:57:12.335Z,14.99
2019-04-26T15:59:43.509Z,14.88
2019-04-26T16:02:14.367Z,14.70
2019-04-26T16:04:47.491Z,14.64
2019-04-26T16:07:27.305Z,14.51
2019-04-26T16:09:55.481Z,14.50
2019-04-26T16:12:27.005Z,14.40
2019-04-26T16:14:57.050Z,14.43
2019-04-26T16:17:28.159Z,14.35
2019-04-26T16:20:00.146Z,14.26
2019-04-26T16:22:33.191Z,14.35
2019-04-26T16:25:05.608Z,14.23
2019-04-26T16:27:36.593Z,14.23
2019-04-26T16:30:09.436Z,14.21
2019-04-26T16:33:00.024Z,14.21
2019-04-26T16:35:32.408Z,14.14
2019-04-26T16:38:22.925Z,14.16
2019-04-26T16:40:55.159Z,14.23
2019-04-26T16:43:36.487Z,14.15
2019-04-26T16:46:02.323Z,14.19
2019-04-26T16:48:33.479Z,14.23
2019-04-26T16:51:08.320Z,14.17
2019-04-26T16:56:12.525Z,14.10
2019-04-26T16:58:45.410Z,14.16
2019-04-26T17:01:16.546Z,14.19
2019-04-26T17:03:48.291Z,14.20
2019-04-26T17:06:19.520Z,14.22
2019-04-26T17:09:00.204Z,14.19
2019-04-26T17:09:38.414Z,14.13
2019-04-26T17:11:23.267Z,14.21
2019-04-26T17:13:56.738Z,14.22
2019-04-26T17:16:29.638Z,14.19
2019-04-26T17:19:00.752Z,14.09
2019-04-26T17:21:34.708Z,14.06
2019-04-26T17:24:09.590Z,14.05
2019-04-26T17:26:48.120Z,14.06
2019-04-26T17:29:19.761Z,14.05
2019-04-26T17:31:52.286Z,14.12
2019-04-26T17:34:28.818Z,14.22
2019-04-26T17:36:56.174Z,14.29
2019-04-26T17:39:27.166Z,14.31
2019-04-26T17:41:58.272Z,14.36
2019-04-26T17:44:30.739Z,14.33
2019-04-26T17:47:02.314Z,14.34
2019-04-26T17:49:34.709Z,14.31
2019-04-26T17:52:06.363Z,14.42
2019-04-26T17:54:46.085Z,14.51
2019-04-26T17:57:14.525Z,14.53
2019-04-26T17:59:47.807Z,14.46
2019-04-26T18:02:31.490Z,14.33
2019-04-26T18:04:58.940Z,14.26
2019-04-26T18:07:40.164Z,14.14
2019-04-26T18:09:57.068Z,14.17
2019-04-26T18:12:28.200Z,14.12
2019-04-26T18:15:00.134Z,14.08
2019-04-26T18:17:38.914Z,14.02
2019-04-26T18:20:09.103Z,13.89
2019-04-26T18:22:47.967Z,13.77
2019-04-26T18:25:19.033Z,13.80
2019-04-26T18:27:49.970Z,13.80
2019-04-26T18:30:21.261Z,13.83
2019-04-26T18:32:52.350Z,13.85
2019-04-26T18:35:23.432Z,13.79
2019-04-26T18:37:54.411Z,13.84
2019-04-26T18:40:25.446Z,13.86
2019-04-26T18:42:56.649Z,13.87
2019-04-26T18:45:29.831Z,13.90
2019-04-26T18:48:01.961Z,13.88
2019-04-26T18:50:36.512Z,13.85
2019-04-26T18:53:14.608Z,13.84
2019-04-26T18:55:47.470Z,13.85
2019-04-26T18:58:18.457Z,13.87
2019-04-26T19:00:49.495Z,13.84
2019-04-26T19:03:26.194Z,13.85
2019-04-26T19:05:54.185Z,13.81
2019-04-26T19:08:27.174Z,13.76
2019-04-26T19:11:01.341Z,13.74
2019-04-26T19:13:47.947Z,13.73
2019-04-26T19:16:29.907Z,13.71
2019-04-26T19:19:22.779Z,13.69
2019-04-26T19:21:55.348Z,13.63
2019-04-26T19:24:26.336Z,13.53
2019-04-26T19:26:57.187Z,13.44
2019-04-26T19:29:33.674Z,13.46
2019-04-26T19:32:04.226Z,13.50
2019-04-26T19:34:34.061Z,13.53
2019-04-26T19:37:05.251Z,13.52
2019-04-26T19:39:36.253Z,13.58
2019-04-26T19:42:07.335Z,13.50
2019-04-26T19:44:38.171Z,13.48
2019-04-26T19:47:12.262Z,13.50
2019-04-26T19:49:48.198Z,13.52
2019-04-26T19:52:39.457Z,13.54
2019-04-26T19:55:27.253Z,13.51
2019-04-26T19:58:01.819Z,13.32
2019-04-26T20:00:33.333Z,13.23
2019-04-26T20:03:08.572Z,13.12
2019-04-26T20:05:40.472Z,13.02
2019-04-26T20:08:12.080Z,13.00
2019-04-26T20:10:45.595Z,13.02
2019-04-26T20:13:16.712Z,13.05
2019-04-26T20:15:47.941Z,13.08
2019-04-26T20:18:18.911Z,13.04
2019-04-26T20:20:52.011Z,12.94
2019-04-26T20:23:23.150Z,12.90
2019-04-26T20:25:54.137Z,12.88
2019-04-26T20:28:25.100Z,12.88
2019-04-26T20:31:07.806Z,12.80
2019-04-26T20:33:36.455Z,12.81
2019-04-26T20:36:07.413Z,12.84
2019-04-26T20:38:45.496Z,12.80
2019-04-26T20:41:13.221Z,12.83
2019-04-26T20:43:48.683Z,12.82
2019-04-26T20:46:16.865Z,12.84
2019-04-26T20:48:47.827Z,12.89
2019-04-26T20:51:18.775Z,12.95
2019-04-26T20:53:49.761Z,13.00
2019-04-26T20:56:22.489Z,12.93
2019-04-26T20:58:53.773Z,12.92
2019-04-26T21:01:25.148Z,12.96
2019-04-26T21:03:56.119Z,12.86
2019-04-26T21:06:29.285Z,12.88
2019-04-26T21:09:03.355Z,12.91
2019-04-26T21:11:37.157Z,12.88
2019-04-26T21:14:07.774Z,12.77
2019-04-26T21:16:38.826Z,12.85
2019-04-26T21:19:12.737Z,12.91
2019-04-26T21:21:48.233Z,12.87
2019-04-26T21:24:19.583Z,12.91
2019-04-26T21:26:54.596Z,12.88
2019-04-26T21:29:30.401Z,12.89
2019-04-26T21:32:03.353Z,12.91
2019-04-26T21:34:39.020Z,12.91
2019-04-26T21:37:27.060Z,12.88
2019-04-26T21:39:59.949Z,12.86
2019-04-26T21:42:30.890Z,12.80
2019-04-26T21:45:03.513Z,12.76
2019-04-26T21:47:37.157Z,12.78
2019-04-26T21:50:08.381Z,12.79
2019-04-26T21:52:39.440Z,12.75
2019-04-26T21:55:10.609Z,12.67
2019-04-26T21:57:41.559Z,12.59
2019-04-26T22:00:14.722Z,12.43
2019-04-26T22:02:45.796Z,12.36
2019-04-26T22:05:17.004Z,12.36
2019-04-26T22:07:48.006Z,12.33
2019-04-26T22:10:23.733Z,12.37
2019-04-26T22:12:54.804Z,12.38
2019-04-26T22:15:37.312Z,12.39
2019-04-26T22:18:10.318Z,12.41
2019-04-26T22:20:50.932Z,12.38
2019-04-26T22:23:39.017Z,12.40
2019-04-26T22:26:10.085Z,12.37
2019-04-26T22:28:41.133Z,12.29
2019-04-26T22:31:13.376Z,12.33
2019-04-26T22:33:44.667Z,12.28
2019-04-26T22:36:15.880Z,12.25
2019-04-26T22:38:46.970Z,12.29
2019-04-26T22:41:17.832Z,12.26
2019-04-26T22:43:59.553Z,12.23
2019-04-26T22:46:47.409Z,12.19
2019-04-26T22:49:17.379Z,12.16
2019-04-26T22:51:48.246Z,12.10
2019-04-26T22:54:19.083Z,12.11
2019-04-26T22:56:49.940Z,12.09
2019-04-26T22:59:22.829Z,12.12
2019-04-26T23:01:53.866Z,12.19
2019-04-26T23:04:26.524Z,12.23
2019-04-26T23:06:57.949Z,12.28
2019-04-26T23:09:29.327Z,12.37
2019-04-26T23:12:03.817Z,12.40
2019-04-26T23:14:36.851Z,12.42
2019-04-26T23:17:27.133Z,12.44
2019-04-26T23:20:17.316Z,12.44
2019-04-26T23:22:48.559Z,12.37
2019-04-26T23:25:19.529Z,12.25
2019-04-26T23:27:54.425Z,12.23
2019-04-26T23:30:23.550Z,12.31
2019-04-26T23:32:54.611Z,12.36
2019-04-26T23:35:25.579Z,12.40
2019-04-26T23:38:00.551Z,12.31
2019-04-26T23:40:29.553Z,12.33
2019-04-26T23:43:00.873Z,12.28
2019-04-26T23:45:33.359Z,12.34
2019-04-26T23:48:07.863Z,12.40
2019-04-26T23:50:37.421Z,12.38
2019-04-26T23:53:08.397Z,12.34
2019-04-26T23:55:42.566Z,12.38
2019-04-26T23:58:13.886Z,12.29
